Portada
METAR-TAF:

METAR-TAF

Aeroports :

Mécheria, Algèria

latitud: 34-56N, longitud: 000-26W, altitud: 1149 m

Observació

L'informe es va fer fa 1 hora i 2 minuts, a les 05:00 UTC
Vent 16 kt del Nord
Temperatura 11°C
Humitat 94%
Pressió 1019 hPa
Visibilitat: 8000 m
Escasses núvols a una alçada de 3000 ft
Núvols disperses a una alçada de 10000 ft

METAR: DAAY 210500Z 36016KT 8000 FEW030 SCT100 11/10 Q1019

Hora: 07:02 (06:02 UTC)

Pronòstic

L'informe es va fer fa 1 hora i 2 minuts, a les 05:00 UTC
Pronòstic vàlid del 21 a les 06 UTC al 21 a les 15 UTC
Vent 16 kt del Nord
Visibilitat: 8000 m
Núvols disperses a una alçada de 3000 ft
Evolucionant progressivament
l' 21 a les 07 UTC al 21 a les 10 UTC
Vent 18 kt del Sud/Sud-Est
Temporalment
l' 21 a les 09 UTC al 21 a les 15 UTC
Vent 18 kt del Sud amb ràfegues de 28 kt

TAF: DAAY 210500Z 2106/2115 36016KT 8000 SCT030 BECMG 2107/2110 16018KT TEMPO 2109/2115 18018G28KT

Observacions i pronòstics meteorològics de més de 4000 aeroports (METAR i TAF).

Les estacions disponibles són els punts grocs i vermells al mapa.

Posi el ratolí al punt desitjat per veure el nom de l'estació.

Feu clic per veure les observacions i els pronòstics meteorològics.

Per canviar el mapa: feu clic els botons verds amb una creu de color negre per apropar; al botó verd amb un guió per allunyar la imatge; o en les fletxes verdes per a mapes adjacents.


METAR-TAF: